createdAt,value
2023-09-08T00:02:30.255Z,1.20
2023-09-08T00:04:57.456Z,1.17
2023-09-08T00:07:24.790Z,1.10
2023-09-08T00:09:51.958Z,1.42
2023-09-08T00:12:19.086Z,1.17
2023-09-08T00:14:46.236Z,1.30
2023-09-08T00:17:13.500Z,1.20
2023-09-08T00:19:40.679Z,1.20
2023-09-08T00:22:08.273Z,1.20
2023-09-08T00:24:35.488Z,1.40
2023-09-08T00:27:02.728Z,1.15
2023-09-08T00:29:30.295Z,1.10
2023-09-08T00:31:57.652Z,1.20
2023-09-08T00:34:24.787Z,1.30
2023-09-08T00:36:52.324Z,1.40
2023-09-08T00:39:19.421Z,1.30
2023-09-08T00:41:46.514Z,1.30
2023-09-08T00:44:13.626Z,1.20
2023-09-08T00:46:41.398Z,1.30
2023-09-08T00:49:10.018Z,1.20
2023-09-08T00:51:38.796Z,1.40
2023-09-08T00:54:06.204Z,1.33
2023-09-08T00:56:33.417Z,1.03
2023-09-08T00:59:00.764Z,1.20
2023-09-08T01:01:27.932Z,1.20
2023-09-08T01:03:55.173Z,1.20
2023-09-08T01:06:22.895Z,1.23
2023-09-08T01:08:50.934Z,1.30
2023-09-08T01:11:19.152Z,1.30
2023-09-08T01:13:46.212Z,1.23
2023-09-08T01:16:13.323Z,1.20
2023-09-08T01:18:40.777Z,1.38
2023-09-08T01:21:15.933Z,1.20
2023-09-08T01:24:01.790Z,1.10
2023-09-08T01:26:29.166Z,1.17
2023-09-08T01:28:56.326Z,1.30
2023-09-08T01:31:23.452Z,1.23
2023-09-08T01:33:50.588Z,1.13
2023-09-08T01:36:17.707Z,1.27
2023-09-08T01:38:44.925Z,1.40
2023-09-08T01:41:12.097Z,1.13
2023-09-08T01:43:39.201Z,1.40
2023-09-08T01:46:06.273Z,1.30
2023-09-08T01:48:33.757Z,1.10
2023-09-08T01:51:01.012Z,1.43
2023-09-08T01:53:28.216Z,1.37
2023-09-08T01:55:55.394Z,1.17
2023-09-08T01:58:22.761Z,1.30
2023-09-08T02:00:50.998Z,1.10
2023-09-08T02:03:18.173Z,1.50
2023-09-08T02:05:46.427Z,1.17
2023-09-08T02:08:14.176Z,1.30
2023-09-08T02:10:41.714Z,1.30
2023-09-08T02:13:08.858Z,1.30
2023-09-08T02:15:39.078Z,1.23
2023-09-08T02:18:06.381Z,1.30
2023-09-08T02:20:33.466Z,1.40
2023-09-08T02:23:05.199Z,1.40
2023-09-08T02:25:32.292Z,1.37
2023-09-08T02:27:59.379Z,1.10
2023-09-08T02:30:26.591Z,1.40
2023-09-08T02:32:53.803Z,1.30
2023-09-08T02:35:21.143Z,1.30
2023-09-08T02:37:48.246Z,1.20
2023-09-08T02:40:15.336Z,1.30
2023-09-08T02:42:42.441Z,1.30
2023-09-08T02:45:09.721Z,1.23
2023-09-08T02:47:36.849Z,1.30
2023-09-08T02:50:05.802Z,1.47
2023-09-08T02:52:32.946Z,1.27
2023-09-08T02:54:59.996Z,1.30
2023-09-08T02:57:27.062Z,1.37
2023-09-08T02:59:57.148Z,1.30
2023-09-08T03:02:25.057Z,1.40
2023-09-08T03:04:52.251Z,1.37
2023-09-08T03:07:19.351Z,1.30
2023-09-08T03:09:46.430Z,1.60
2023-09-08T03:12:13.605Z,1.40
2023-09-08T03:14:40.672Z,1.40
2023-09-08T03:17:07.757Z,1.30
2023-09-08T03:19:34.982Z,1.60
2023-09-08T03:22:02.077Z,1.40
2023-09-08T03:24:29.109Z,1.30
2023-09-08T03:26:56.327Z,1.20
2023-09-08T03:29:23.519Z,1.30
2023-09-08T03:31:50.726Z,1.20
2023-09-08T03:34:21.615Z,1.40
2023-09-08T03:36:49.013Z,1.17
2023-09-08T03:39:16.176Z,1.37
2023-09-08T03:41:43.229Z,1.23
2023-09-08T03:44:10.297Z,1.20
2023-09-08T03:46:37.849Z,1.30
2023-09-08T03:49:05.138Z,1.13
2023-09-08T03:51:32.182Z,1.40
2023-09-08T03:53:59.293Z,1.30
2023-09-08T03:56:26.435Z,1.27
2023-09-08T03:58:53.594Z,1.20
2023-09-08T04:01:20.682Z,1.40
2023-09-08T04:03:47.838Z,1.20
2023-09-08T04:06:14.935Z,1.20
2023-09-08T04:08:41.994Z,1.27
2023-09-08T04:11:09.030Z,1.30
2023-09-08T04:13:36.307Z,1.40
2023-09-08T04:16:03.633Z,1.20
2023-09-08T04:18:30.843Z,1.30
2023-09-08T04:20:58.088Z,1.30
2023-09-08T04:23:25.185Z,1.43
2023-09-08T04:25:52.317Z,1.40
2023-09-08T04:28:19.368Z,1.27
2023-09-08T04:30:46.535Z,1.30
2023-09-08T04:33:13.759Z,1.50
2023-09-08T04:35:40.983Z,1.40
2023-09-08T04:38:08.101Z,1.50
2023-09-08T04:40:35.368Z,1.30
2023-09-08T04:43:02.548Z,1.40
2023-09-08T04:45:29.702Z,1.30
2023-09-08T04:47:56.815Z,1.10
2023-09-08T04:50:23.884Z,1.30
2023-09-08T04:52:50.918Z,1.40
2023-09-08T04:55:20.391Z,1.30
2023-09-08T04:57:47.428Z,1.37
2023-09-08T05:00:14.749Z,1.50
2023-09-08T05:02:41.895Z,1.40
2023-09-08T05:05:09.273Z,1.47
2023-09-08T05:07:36.382Z,1.60
2023-09-08T05:10:03.512Z,1.60
2023-09-08T05:12:30.631Z,1.50
2023-09-08T05:15:01.267Z,1.40
2023-09-08T05:17:28.437Z,1.50
2023-09-08T05:19:55.508Z,1.60
2023-09-08T05:22:22.909Z,1.37
2023-09-08T05:24:50.044Z,1.20
2023-09-08T05:27:17.210Z,1.33
2023-09-08T05:29:44.307Z,1.40
2023-09-08T05:32:11.430Z,1.33
2023-09-08T05:34:38.475Z,1.50
2023-09-08T05:37:05.639Z,1.30
2023-09-08T05:39:32.741Z,1.40
2023-09-08T05:41:59.825Z,1.40
2023-09-08T05:44:26.872Z,1.47
2023-09-08T05:46:54.000Z,1.50
2023-09-08T05:49:21.149Z,1.50
2023-09-08T05:51:48.243Z,1.23
2023-09-08T05:54:15.340Z,1.40
2023-09-08T05:56:42.516Z,1.33
2023-09-08T05:59:09.868Z,1.43
2023-09-08T06:01:37.832Z,1.60
2023-09-08T06:04:05.154Z,1.40
2023-09-08T06:06:32.378Z,1.40
2023-09-08T06:08:59.440Z,1.40
2023-09-08T06:11:26.591Z,1.50
2023-09-08T06:13:57.100Z,1.33
2023-09-08T06:16:25.273Z,1.50
2023-09-08T06:18:52.370Z,1.40
2023-09-08T06:21:19.406Z,1.53
2023-09-08T06:23:46.504Z,1.50
2023-09-08T06:26:13.802Z,1.70
2023-09-08T06:28:42.935Z,1.30
2023-09-08T06:31:10.386Z,1.20
2023-09-08T06:33:37.580Z,1.20
2023-09-08T06:36:04.744Z,1.40
2023-09-08T06:38:32.694Z,1.30
2023-09-08T06:41:00.124Z,1.20
2023-09-08T06:43:27.207Z,1.40
2023-09-08T06:45:54.274Z,1.10
2023-09-08T06:48:21.442Z,1.10
2023-09-08T06:50:48.781Z,1.20
2023-09-08T06:53:15.926Z,1.20
2023-09-08T06:55:45.557Z,1.00
2023-09-08T06:58:15.777Z,1.10
2023-09-08T07:00:43.233Z,0.93
2023-09-08T07:03:10.533Z,0.90
2023-09-08T07:05:37.972Z,0.90
2023-09-08T07:08:07.198Z,0.80
2023-09-08T07:10:34.471Z,0.77
2023-09-08T07:13:01.599Z,0.73
2023-09-08T07:15:28.702Z,0.65
2023-09-08T07:17:55.981Z,0.70
2023-09-08T07:20:23.525Z,0.70
2023-09-08T07:22:50.616Z,0.65
2023-09-08T07:25:17.802Z,0.80
2023-09-08T07:27:44.856Z,0.70
2023-09-08T07:30:12.158Z,0.90
2023-09-08T07:32:39.290Z,0.88
2023-09-08T07:35:06.521Z,0.85
2023-09-08T07:37:33.575Z,0.90
2023-09-08T07:40:00.652Z,0.55
2023-09-08T07:42:28.316Z,0.68
2023-09-08T07:44:55.391Z,0.95
2023-09-08T07:47:22.438Z,1.00
2023-09-08T07:49:49.574Z,0.80
2023-09-08T07:52:16.702Z,0.90
2023-09-08T07:54:43.757Z,1.00
2023-09-08T07:57:10.823Z,1.00
2023-09-08T07:59:38.270Z,1.10
2023-09-08T08:02:05.482Z,0.82
2023-09-08T08:04:32.677Z,0.90
2023-09-08T08:06:59.875Z,1.02
2023-09-08T08:09:26.960Z,1.00
2023-09-08T08:11:54.079Z,1.05
2023-09-08T08:14:21.167Z,1.10
2023-09-08T08:16:48.271Z,1.08
2023-09-08T08:19:15.329Z,1.20
2023-09-08T08:21:43.290Z,1.00
2023-09-08T08:24:11.395Z,1.10
2023-09-08T08:26:38.616Z,1.30
2023-09-08T08:29:05.738Z,1.10
2023-09-08T08:31:34.185Z,1.15
2023-09-08T08:34:01.291Z,1.20
2023-09-08T08:36:28.389Z,1.20
2023-09-08T08:38:55.537Z,1.20
2023-09-08T08:41:22.587Z,1.27
2023-09-08T08:43:49.780Z,1.23
2023-09-08T08:46:17.001Z,1.45
2023-09-08T08:48:44.125Z,1.20
2023-09-08T08:51:12.205Z,1.40
2023-09-08T08:53:39.553Z,1.23
2023-09-08T08:56:09.450Z,1.33
2023-09-08T08:58:37.630Z,1.10
2023-09-08T09:01:05.532Z,1.20
2023-09-08T09:03:32.719Z,1.40
2023-09-08T09:06:00.275Z,1.30
2023-09-08T09:08:27.379Z,1.50
2023-09-08T09:10:54.692Z,1.40
2023-09-08T09:13:22.230Z,1.30
2023-09-08T09:15:50.443Z,1.13
2023-09-08T09:18:17.792Z,1.30
2023-09-08T09:20:54.715Z,1.42
2023-09-08T09:23:28.963Z,1.25
2023-09-08T09:25:56.064Z,1.10
2023-09-08T09:28:23.133Z,1.42
2023-09-08T09:30:52.086Z,1.20
2023-09-08T09:33:19.338Z,1.30
2023-09-08T09:35:47.176Z,1.35
2023-09-08T09:38:14.517Z,1.30
2023-09-08T09:40:41.636Z,1.25
2023-09-08T09:43:09.006Z,1.13
2023-09-08T09:45:36.377Z,1.20
2023-09-08T09:48:07.332Z,1.20
2023-09-08T09:50:41.166Z,1.13
2023-09-08T09:53:15.327Z,1.08
2023-09-08T09:55:42.957Z,1.10
2023-09-08T09:58:11.570Z,1.27
2023-09-08T10:00:39.322Z,1.30
2023-09-08T10:03:06.874Z,1.23
2023-09-08T10:05:34.167Z,1.38
2023-09-08T10:08:01.240Z,1.17
2023-09-08T10:10:29.733Z,1.30
2023-09-08T10:12:57.360Z,1.10
2023-09-08T10:15:25.195Z,1.10
2023-09-08T10:17:56.738Z,1.25
2023-09-08T10:20:27.128Z,1.20
2023-09-08T10:23:10.115Z,1.20
2023-09-08T10:25:38.858Z,1.30
2023-09-08T10:28:05.937Z,1.35
2023-09-08T10:30:33.034Z,1.20
2023-09-08T10:33:00.138Z,1.20
2023-09-08T10:35:27.245Z,1.30
2023-09-08T10:38:08.888Z,1.27
2023-09-08T10:40:36.084Z,1.13
2023-09-08T10:43:09.429Z,1.10
2023-09-08T10:45:36.646Z,1.30
2023-09-08T10:48:04.964Z,1.30
2023-09-08T10:50:33.509Z,1.40
2023-09-08T10:53:07.259Z,1.60
2023-09-08T10:55:38.577Z,1.30
2023-09-08T10:58:06.772Z,1.15
2023-09-08T11:00:46.925Z,1.30
2023-09-08T11:03:14.983Z,1.25
2023-09-08T11:05:43.498Z,1.55
2023-09-08T11:08:11.581Z,1.30
2023-09-08T11:10:41.722Z,1.27
2023-09-08T11:13:08.899Z,1.00
2023-09-08T11:15:35.999Z,1.02
2023-09-08T11:18:06.713Z,1.17
2023-09-08T11:20:34.141Z,1.27
2023-09-08T11:23:01.284Z,1.33
2023-09-08T11:25:28.378Z,1.33
2023-09-08T11:27:55.444Z,1.30
2023-09-08T11:30:22.593Z,1.20
2023-09-08T11:32:49.745Z,1.20
2023-09-08T11:35:17.324Z,1.10
2023-09-08T11:37:44.454Z,1.15
2023-09-08T11:40:13.727Z,1.20
2023-09-08T11:42:45.715Z,1.23
2023-09-08T11:45:14.205Z,1.20
2023-09-08T11:47:44.681Z,1.23
2023-09-08T11:50:16.230Z,1.20
2023-09-08T11:52:46.618Z,1.23
2023-09-08T11:55:14.196Z,1.20
2023-09-08T11:57:45.190Z,1.40
2023-09-08T12:00:16.956Z,1.40
2023-09-08T12:02:44.122Z,1.10
2023-09-08T12:05:29.593Z,1.48
2023-09-08T12:07:59.924Z,1.40
2023-09-08T12:10:27.250Z,1.30
2023-09-08T12:12:55.710Z,1.10
2023-09-08T12:15:35.687Z,1.30
2023-09-08T12:18:06.166Z,1.25
2023-09-08T12:20:33.473Z,1.30
2023-09-08T12:23:02.538Z,1.38
2023-09-08T12:25:32.303Z,1.30
2023-09-08T12:27:59.929Z,1.20
2023-09-08T12:30:34.085Z,1.45
2023-09-08T12:33:01.808Z,1.30
2023-09-08T12:35:32.187Z,1.33
2023-09-08T12:38:01.046Z,1.23
2023-09-08T12:40:28.726Z,1.20
2023-09-08T12:42:59.451Z,1.10
2023-09-08T12:45:30.920Z,1.17
2023-09-08T12:47:59.801Z,1.20
2023-09-08T12:50:27.305Z,1.40
2023-09-08T12:52:54.661Z,1.30
2023-09-08T12:55:22.028Z,1.17
2023-09-08T12:57:50.962Z,1.10
2023-09-08T13:00:18.339Z,0.90
2023-09-08T13:02:45.982Z,1.10
2023-09-08T13:05:13.117Z,1.00
2023-09-08T13:07:40.169Z,1.13
2023-09-08T13:10:08.400Z,1.00
2023-09-08T13:12:35.533Z,1.00
2023-09-08T13:15:02.666Z,0.98
2023-09-08T13:17:29.757Z,1.00
2023-09-08T13:19:56.901Z,1.17
2023-09-08T13:22:23.977Z,1.20
2023-09-08T13:24:51.059Z,0.90
2023-09-08T13:27:19.028Z,1.00
2023-09-08T13:29:46.161Z,1.00
2023-09-08T13:32:13.339Z,1.00
2023-09-08T13:34:40.628Z,1.10
2023-09-08T13:37:07.827Z,1.10
2023-09-08T13:39:34.877Z,0.88
2023-09-08T13:42:02.416Z,1.27
2023-09-08T13:44:29.689Z,1.20
2023-09-08T13:46:57.108Z,0.90
2023-09-08T13:49:25.973Z,1.05
2023-09-08T13:51:57.115Z,1.17
2023-09-08T13:54:25.694Z,1.05
2023-09-08T13:57:01.609Z,1.10
2023-09-08T13:59:35.746Z,1.10
2023-09-08T14:02:34.349Z,1.10
2023-09-08T14:09:55.586Z,0.85
2023-09-08T14:12:34.721Z,1.00
2023-09-08T14:15:03.269Z,1.20
2023-09-08T14:17:30.568Z,1.00
2023-09-08T14:19:57.798Z,0.95
2023-09-08T14:22:25.659Z,1.10
2023-09-08T14:24:52.757Z,1.10
2023-09-08T14:27:19.828Z,1.00
2023-09-08T14:29:46.898Z,1.00
2023-09-08T14:32:14.094Z,0.98
2023-09-08T14:34:41.165Z,1.00
2023-09-08T14:37:11.091Z,0.90
2023-09-08T14:39:38.899Z,1.10
2023-09-08T14:42:06.805Z,1.00
2023-09-08T14:44:34.105Z,0.85
2023-09-08T14:47:01.196Z,1.00
2023-09-08T14:49:28.258Z,0.90
2023-09-08T14:51:55.379Z,0.93
2023-09-08T14:54:22.642Z,1.10
2023-09-08T14:56:49.783Z,0.80
2023-09-08T14:59:16.827Z,1.00
2023-09-08T15:01:45.962Z,1.02
2023-09-08T15:04:13.463Z,0.70
2023-09-08T15:06:40.580Z,0.90
2023-09-08T15:09:07.620Z,1.00
2023-09-08T15:11:34.693Z,0.80
2023-09-08T15:14:01.846Z,0.88
2023-09-08T15:16:28.971Z,1.10
2023-09-08T15:18:58.127Z,0.90
2023-09-08T15:21:28.626Z,0.90
2023-09-08T15:23:56.147Z,0.90
2023-09-08T15:26:23.273Z,1.00
2023-09-08T15:28:50.359Z,0.90
2023-09-08T15:31:18.150Z,0.93
2023-09-08T15:33:45.792Z,0.93
2023-09-08T15:36:13.168Z,0.95
2023-09-08T15:38:40.260Z,0.90
2023-09-08T15:41:11.072Z,0.80
2023-09-08T15:43:39.394Z,1.00
2023-09-08T15:46:09.455Z,1.20
2023-09-08T15:48:36.771Z,1.20
2023-09-08T15:51:04.086Z,1.35
2023-09-08T15:53:31.934Z,1.30
2023-09-08T15:55:59.153Z,1.50
2023-09-08T15:58:26.377Z,1.30
2023-09-08T16:00:53.613Z,1.55
2023-09-08T16:03:21.161Z,1.30
2023-09-08T16:05:48.483Z,1.40
2023-09-08T16:08:15.637Z,1.60
2023-09-08T16:10:42.752Z,1.42
2023-09-08T16:13:09.850Z,1.30
2023-09-08T16:15:37.030Z,1.30
2023-09-08T16:18:06.154Z,1.40
2023-09-08T16:20:33.532Z,1.35
2023-09-08T16:23:00.627Z,1.20
2023-09-08T16:25:27.744Z,1.17
2023-09-08T16:27:54.796Z,1.20
2023-09-08T16:30:21.849Z,1.25
2023-09-08T16:32:48.930Z,1.40
2023-09-08T16:35:16.399Z,1.40
2023-09-08T16:37:44.490Z,1.30
2023-09-08T16:40:11.696Z,1.30
2023-09-08T16:42:38.832Z,1.20
2023-09-08T16:45:06.227Z,0.93
2023-09-08T16:47:33.309Z,1.17
2023-09-08T16:50:00.414Z,1.20
2023-09-08T16:52:27.484Z,1.10
2023-09-08T16:54:54.593Z,1.30
2023-09-08T16:57:21.646Z,1.20
2023-09-08T16:59:48.800Z,1.15
2023-09-08T17:02:16.646Z,1.25
2023-09-08T17:04:45.269Z,1.30
2023-09-08T17:07:12.425Z,1.00
2023-09-08T17:09:39.709Z,1.38
2023-09-08T17:12:08.284Z,1.30
2023-09-08T17:14:35.727Z,1.50
2023-09-08T17:17:03.358Z,1.30
2023-09-08T17:19:30.421Z,1.60
2023-09-08T17:21:59.102Z,1.20
2023-09-08T17:24:27.068Z,1.20
2023-09-08T17:26:54.138Z,1.40
2023-09-08T17:29:21.207Z,1.38
2023-09-08T17:31:48.288Z,1.33
2023-09-08T17:34:18.849Z,1.30
2023-09-08T17:36:46.118Z,1.33
2023-09-08T17:39:13.167Z,1.60
2023-09-08T17:41:40.223Z,1.40
2023-09-08T17:44:07.311Z,1.50
2023-09-08T17:46:34.477Z,1.40
2023-09-08T17:49:01.625Z,1.40
2023-09-08T17:51:28.694Z,1.42
2023-09-08T17:53:55.806Z,1.20
2023-09-08T17:56:22.927Z,1.30
2023-09-08T17:58:50.022Z,1.17
2023-09-08T18:01:17.218Z,1.23
2023-09-08T18:03:47.331Z,1.20
2023-09-08T18:06:14.768Z,1.20
2023-09-08T18:08:41.887Z,1.30
2023-09-08T18:11:09.428Z,1.17
2023-09-08T18:13:36.814Z,1.20
2023-09-08T18:16:04.580Z,1.10
2023-09-08T18:18:33.561Z,1.10
2023-09-08T18:21:00.670Z,1.10
2023-09-08T18:23:27.741Z,0.95
2023-09-08T18:25:57.572Z,1.00
2023-09-08T18:28:24.829Z,1.13
2023-09-08T18:30:53.536Z,1.00
2023-09-08T18:33:20.804Z,1.17
2023-09-08T18:35:47.955Z,1.10
2023-09-08T18:38:15.122Z,1.10
2023-09-08T18:40:48.311Z,1.10
2023-09-08T18:43:15.773Z,1.25
2023-09-08T18:45:45.937Z,1.30
2023-09-08T18:48:13.179Z,1.20
2023-09-08T18:50:40.768Z,1.25
2023-09-08T18:53:07.918Z,1.23
2023-09-08T18:55:35.329Z,1.20
2023-09-08T18:58:03.558Z,1.20
2023-09-08T19:00:31.707Z,1.30
2023-09-08T19:02:58.989Z,1.30
2023-09-08T19:05:26.254Z,1.35
2023-09-08T19:07:53.471Z,1.30
2023-09-08T19:10:20.632Z,1.40
2023-09-08T19:12:47.678Z,1.33
2023-09-08T19:15:14.847Z,1.30
2023-09-08T19:17:41.968Z,1.40
2023-09-08T19:20:09.452Z,1.60
2023-09-08T19:22:36.494Z,2.20
2023-09-08T19:25:03.639Z,2.72
2023-09-08T19:27:30.937Z,2.33
2023-09-08T19:29:58.073Z,2.55
2023-09-08T19:32:25.152Z,2.50
2023-09-08T19:34:53.099Z,2.08
2023-09-08T19:37:20.313Z,2.30
2023-09-08T19:39:47.435Z,2.17
2023-09-08T19:42:16.957Z,2.28
2023-09-08T19:44:44.118Z,2.50
2023-09-08T19:47:11.365Z,3.58
2023-09-08T19:49:39.694Z,3.30
2023-09-08T19:52:07.172Z,2.83
2023-09-08T19:54:34.233Z,2.50
2023-09-08T19:57:01.333Z,2.38
2023-09-08T19:59:28.413Z,2.28
2023-09-08T20:01:55.548Z,2.40
2023-09-08T20:04:22.678Z,1.92
2023-09-08T20:06:52.242Z,1.80
2023-09-08T20:09:19.315Z,1.80
2023-09-08T20:11:46.377Z,2.00
2023-09-08T20:14:13.558Z,1.95
2023-09-08T20:16:40.756Z,2.10
2023-09-08T20:19:07.872Z,1.98
2023-09-08T20:21:34.912Z,2.10
2023-09-08T20:24:07.168Z,2.60
2023-09-08T20:26:34.255Z,2.22
2023-09-08T20:29:01.445Z,2.33
2023-09-08T20:31:28.521Z,2.13
2023-09-08T20:33:55.706Z,2.10
2023-09-08T20:36:22.859Z,2.00
2023-09-08T20:38:50.308Z,1.90
2023-09-08T20:41:17.495Z,1.90
2023-09-08T20:43:46.187Z,1.75
2023-09-08T20:46:13.543Z,1.83
2023-09-08T20:48:40.932Z,1.75
2023-09-08T20:51:08.789Z,2.10
2023-09-08T20:53:39.550Z,1.70
2023-09-08T20:56:12.672Z,1.85
2023-09-08T20:58:43.139Z,1.80
2023-09-08T21:01:10.368Z,1.80
2023-09-08T21:03:38.158Z,1.90
2023-09-08T21:06:05.890Z,1.75
2023-09-08T21:08:33.014Z,1.95
2023-09-08T21:11:00.096Z,1.70
2023-09-08T21:13:27.365Z,1.48
2023-09-08T21:15:54.579Z,1.40
2023-09-08T21:18:21.698Z,1.65
2023-09-08T21:20:49.347Z,1.70
2023-09-08T21:23:16.849Z,1.70
2023-09-08T21:25:44.016Z,1.63
2023-09-08T21:28:11.099Z,1.58
2023-09-08T21:30:38.203Z,1.60
2023-09-08T21:33:05.451Z,1.75
2023-09-08T21:35:32.647Z,1.50
2023-09-08T21:37:59.723Z,1.67
2023-09-08T21:40:26.912Z,1.70
2023-09-08T21:42:54.048Z,1.70
2023-09-08T21:45:21.113Z,1.50
2023-09-08T21:47:50.776Z,1.48
2023-09-08T21:50:18.558Z,1.30
2023-09-08T21:52:45.906Z,1.45
2023-09-08T21:55:13.167Z,1.50
2023-09-08T21:57:40.286Z,1.35
2023-09-08T22:00:11.763Z,1.42
2023-09-08T22:02:39.092Z,1.58
2023-09-08T22:05:06.773Z,1.40
2023-09-08T22:07:34.297Z,1.27
2023-09-08T22:10:01.632Z,1.30
2023-09-08T22:12:28.793Z,1.50
2023-09-08T22:14:56.674Z,1.50
2023-09-08T22:17:23.874Z,1.60
2023-09-08T22:19:51.115Z,1.30
2023-09-08T22:22:18.181Z,1.38
2023-09-08T22:24:45.492Z,1.40
2023-09-08T22:27:12.535Z,1.45
2023-09-08T22:29:39.612Z,1.50
2023-09-08T22:32:06.821Z,1.30
2023-09-08T22:34:34.377Z,1.35
2023-09-08T22:37:01.608Z,1.30
2023-09-08T22:39:28.659Z,1.40
2023-09-08T22:41:55.756Z,1.50
2023-09-08T22:44:22.854Z,1.50
2023-09-08T22:46:49.921Z,1.50
2023-09-08T22:49:16.988Z,1.38
2023-09-08T22:51:44.048Z,1.60
2023-09-08T22:54:11.125Z,1.40
2023-09-08T22:56:38.262Z,1.30
2023-09-08T22:59:05.331Z,1.60
2023-09-08T23:01:32.446Z,1.50
2023-09-08T23:03:59.619Z,1.50
2023-09-08T23:06:26.746Z,1.30
2023-09-08T23:08:53.849Z,1.50
2023-09-08T23:11:20.965Z,1.67
2023-09-08T23:13:48.057Z,1.60
2023-09-08T23:16:15.407Z,1.50
2023-09-08T23:18:42.650Z,1.40
2023-09-08T23:21:10.442Z,1.30
2023-09-08T23:23:37.723Z,1.50
2023-09-08T23:26:05.001Z,1.17
2023-09-08T23:28:32.234Z,1.50
2023-09-08T23:30:59.446Z,1.40
2023-09-08T23:33:26.854Z,1.40
2023-09-08T23:35:54.092Z,1.30
2023-09-08T23:38:21.151Z,1.40
2023-09-08T23:40:48.555Z,1.40
2023-09-08T23:43:15.734Z,1.40
2023-09-08T23:45:46.353Z,1.30
2023-09-08T23:48:13.466Z,1.20
2023-09-08T23:50:53.323Z,1.30
2023-09-08T23:53:20.821Z,1.20
2023-09-08T23:55:48.767Z,1.45
2023-09-08T23:58:15.993Z,1.20
